Time;durP1;ratioP1;P1;durP2;ratioP2;P2;SDS_P1;SDS_P2;PMS_P1;PMS_P2;Temp;Humidity;BMP_temperature;BMP_pressure;BME280_temperature;BME280_humidity;BME280_pressure;Samples;Min_cycle;Max_cycle;Signal;HPM_P1;HPM_P2
2022/05/15 00:02:05;;;;;;;;;;;;;;;16.54;56.70;100998.56;4419014;32;20347;-68
2022/05/15 00:04:31;;;;;;;;;;;;;;;16.67;56.43;100987.84;4419992;32;20606;-68
2022/05/15 00:06:57;;;;;;;;;;;;;;;16.68;56.25;100983.75;4419976;32;19967;-68
2022/05/15 00:09:22;;;;;;;;;;;;;;;16.63;56.64;100973.00;4418871;32;20013;-68
2022/05/15 00:11:48;;;;;;;;;;;;;;;16.84;56.33;100979.78;4422067;32;20283;-68
2022/05/15 00:14:13;;;;;;;;;;;;;;;16.81;56.44;100977.91;4419192;32;20099;-68
2022/05/15 00:16:39;;;;;;;;;;;;;;;16.88;55.96;100989.72;4421751;32;20020;-68
2022/05/15 00:19:05;;;;;;;;;;;;;;;16.88;55.92;100988.94;4419715;32;19945;-68
2022/05/15 00:21:31;;;;;;;;;;;;;;;16.81;55.95;100994.97;4421086;32;19992;-68
2022/05/15 00:23:56;;;;;;;;;;;;;;;16.76;56.05;100982.16;4419691;32;20026;-68
2022/05/15 00:26:22;;;;;;;;;;;;;;;16.69;56.07;100971.09;4416718;32;19958;-68
2022/05/15 00:28:47;;;;;;;;;;;;;;;16.53;56.61;100971.44;4422546;32;19949;-68
2022/05/15 00:31:13;;;;;;;;;;;;;;;16.56;56.71;100976.16;4422873;32;20304;-68
2022/05/15 00:33:39;;;;;;;;;;;;;;;16.57;56.57;100985.50;4421029;32;20442;-68
2022/05/15 00:36:05;;;;;;;;;;;;;;;16.63;56.47;100990.03;4420390;32;20021;-68
2022/05/15 00:38:31;;;;;;;;;;;;;;;16.61;56.73;100981.22;4420557;32;20279;-68
2022/05/15 00:40:57;;;;;;;;;;;;;;;16.61;57.13;100986.09;4419453;32;20370;-68
2022/05/15 00:43:43;;;;;;;;;;;;;;;16.82;56.29;100979.47;4419548;32;20042;-68
2022/05/15 00:46:14;;;;;;;;;;;;;;;16.91;56.43;100983.06;4422635;32;19967;-68
2022/05/15 00:48:40;;;;;;;;;;;;;;;16.89;56.32;100970.59;4421284;32;20206;-68
2022/05/15 00:51:09;;;;;;;;;;;;;;;16.89;56.60;100971.41;4417434;32;19985;-68
2022/05/15 00:53:35;;;;;;;;;;;;;;;16.98;56.31;100973.44;4420598;32;20005;-68
2022/05/15 00:56:02;;;;;;;;;;;;;;;17.03;56.17;100970.72;4420935;32;19997;-68
2022/05/15 00:58:31;;;;;;;;;;;;;;;17.05;55.97;100971.06;4423404;32;19980;-68
2022/05/15 01:00:57;;;;;;;;;;;;;;;17.02;55.78;100972.00;4417992;32;20049;-68
2022/05/15 01:03:23;;;;;;;;;;;;;;;17.03;55.99;100967.12;4418985;32;20000;-68
2022/05/15 01:05:54;;;;;;;;;;;;;;;17.10;55.89;100967.56;4417186;32;20366;-68
2022/05/15 01:08:21;;;;;;;;;;;;;;;17.09;55.58;100973.75;4408438;32;19987;-68
2022/05/15 01:10:50;;;;;;;;;;;;;;;17.24;54.95;100975.41;4418220;32;19957;-68
2022/05/15 01:13:17;;;;;;;;;;;;;;;17.16;55.27;100973.41;4419694;32;20693;-68
2022/05/15 01:15:46;;;;;;;;;;;;;;;17.19;55.35;100983.81;4421265;32;19967;-68
2022/05/15 01:18:23;;;;;;;;;;;;;;;17.22;55.08;100988.56;4420173;32;20007;-68
2022/05/15 01:20:53;;;;;;;;;;;;;;;17.15;55.45;100994.59;4419686;32;20000;-68
2022/05/15 01:23:21;;;;;;;;;;;;;;;17.11;55.68;101002.47;4417021;32;20009;-68
2022/05/15 01:25:47;;;;;;;;;;;;;;;17.20;55.59;100991.88;4419670;32;19998;-68
2022/05/15 01:28:15;;;;;;;;;;;;;;;17.16;55.87;100985.56;4418617;32;20418;-68
2022/05/15 01:30:43;;;;;;;;;;;;;;;17.15;55.91;100989.66;4418328;32;20319;-68
2022/05/15 01:33:09;;;;;;;;;;;;;;;17.25;55.54;100994.03;4421599;32;20367;-68
2022/05/15 01:35:35;;;;;;;;;;;;;;;17.27;55.09;100991.53;4418953;32;19968;-68
2022/05/15 01:38:00;;;;;;;;;;;;;;;17.21;55.35;100984.12;4422704;32;20453;-68
2022/05/15 01:40:26;;;;;;;;;;;;;;;17.34;55.25;100979.81;4419822;32;19994;-68
2022/05/15 01:42:51;;;;;;;;;;;;;;;17.34;55.19;100990.41;4420507;32;20308;-68
2022/05/15 01:45:19;;;;;;;;;;;;;;;17.44;54.66;100984.25;4419418;32;19954;-68
2022/05/15 01:47:46;;;;;;;;;;;;;;;17.28;55.08;100980.94;4420013;32;20025;-68
2022/05/15 01:50:12;;;;;;;;;;;;;;;17.38;54.62;100980.44;4417470;32;20719;-68
2022/05/15 01:52:38;;;;;;;;;;;;;;;17.34;55.21;100976.97;4404498;32;19972;-68
2022/05/15 01:55:04;;;;;;;;;;;;;;;17.40;55.00;100977.13;4420630;32;19968;-68
2022/05/15 01:57:29;;;;;;;;;;;;;;;17.46;54.72;100966.69;4421371;32;20016;-68
2022/05/15 01:59:55;;;;;;;;;;;;;;;17.40;54.73;100972.19;4417669;32;19967;-68
2022/05/15 02:02:20;;;;;;;;;;;;;;;17.32;55.10;100982.34;4419727;32;20337;-69
2022/05/15 02:04:46;;;;;;;;;;;;;;;17.49;54.91;100983.56;4418494;32;19988;-69
2022/05/15 02:07:11;;;;;;;;;;;;;;;17.52;55.09;100991.16;4419003;32;20275;-69
2022/05/15 02:09:37;;;;;;;;;;;;;;;17.47;55.08;100991.81;4417169;32;20020;-68
2022/05/15 02:12:04;;;;;;;;;;;;;;;17.39;55.47;100998.28;4419715;32;19990;-68
2022/05/15 02:14:29;;;;;;;;;;;;;;;17.22;55.82;100988.56;4418224;32;20306;-68
2022/05/15 02:16:55;;;;;;;;;;;;;;;17.39;55.31;100989.75;4424412;32;19962;-68
2022/05/15 02:19:20;;;;;;;;;;;;;;;17.26;55.50;100994.84;4419309;32;20277;-68
2022/05/15 02:21:47;;;;;;;;;;;;;;;17.47;54.92;101003.19;4421017;32;20012;-68
2022/05/15 02:24:13;;;;;;;;;;;;;;;17.51;54.68;101000.97;4424034;32;19949;-68
2022/05/15 02:26:39;;;;;;;;;;;;;;;17.34;55.26;100996.87;4422535;32;19967;-68
2022/05/15 02:29:05;;;;;;;;;;;;;;;17.35;55.47;100989.13;4419510;32;20009;-68
2022/05/15 02:31:32;;;;;;;;;;;;;;;17.63;54.84;100994.28;4423584;32;20070;-68
2022/05/15 02:33:58;;;;;;;;;;;;;;;17.63;54.53;100999.16;4421468;32;20542;-68
2022/05/15 02:36:24;;;;;;;;;;;;;;;17.68;54.50;100990.00;4421015;32;20352;-68
2022/05/15 02:38:50;;;;;;;;;;;;;;;17.82;54.16;100986.41;4423934;32;21007;-68
2022/05/15 02:41:16;;;;;;;;;;;;;;;17.96;53.74;100991.41;4420303;32;20380;-68
2022/05/15 02:43:41;;;;;;;;;;;;;;;17.99;53.68;100987.59;4417471;32;20421;-68
2022/05/15 02:46:08;;;;;;;;;;;;;;;17.96;53.59;100988.56;4421013;32;19984;-68
2022/05/15 02:51:19;;;;;;;;;;;;;;;17.92;53.26;101000.13;4421748;32;19962;-68
2022/05/15 02:53:46;;;;;;;;;;;;;;;17.99;53.67;100992.50;4420124;32;19982;-68
2022/05/15 02:56:15;;;;;;;;;;;;;;;17.94;54.05;100987.50;4422083;32;20362;-68
2022/05/15 02:58:40;;;;;;;;;;;;;;;18.10;53.55;100992.75;4423671;32;19989;-68
2022/05/15 03:01:07;;;;;;;;;;;;;;;18.08;53.74;100990.41;4418144;32;20005;-68
2022/05/15 03:03:34;;;;;;;;;;;;;;;18.19;53.39;100992.72;4420617;32;19992;-68
2022/05/15 03:05:59;;;;;;;;;;;;;;;18.27;53.36;100985.34;4422094;32;20039;-68
2022/05/15 03:08:25;;;;;;;;;;;;;;;18.19;53.43;100993.47;4422758;32;19963;-68
2022/05/15 03:10:51;;;;;;;;;;;;;;;18.28;53.33;100995.50;4423454;32;20103;-68
2022/05/15 03:13:16;;;;;;;;;;;;;;;18.36;53.25;101002.38;4420936;32;19961;-68
2022/05/15 03:15:42;;;;;;;;;;;;;;;18.38;53.25;101012.03;4421376;32;19972;-68
2022/05/15 03:18:08;;;;;;;;;;;;;;;18.31;53.63;101014.47;4421921;32;20009;-68
2022/05/15 03:20:33;;;;;;;;;;;;;;;18.37;53.74;101023.94;4420888;32;20021;-68
2022/05/15 03:22:59;;;;;;;;;;;;;;;18.26;53.60;101017.97;4421131;32;20005;-68
2022/05/15 03:25:26;;;;;;;;;;;;;;;18.11;53.58;101023.59;4420547;32;20325;-68
2022/05/15 03:27:52;;;;;;;;;;;;;;;18.03;54.23;101018.72;4423077;32;19961;-68
2022/05/15 03:30:18;;;;;;;;;;;;;;;17.96;54.34;101019.91;4422757;32;20012;-68
2022/05/15 03:32:44;;;;;;;;;;;;;;;17.91;54.93;101031.16;4419050;32;19968;-68
2022/05/15 03:35:11;;;;;;;;;;;;;;;17.69;55.93;101042.78;4419681;32;20382;-68
2022/05/15 03:37:37;;;;;;;;;;;;;;;17.67;56.65;101034.72;4409529;32;20392;-68
2022/05/15 03:40:04;;;;;;;;;;;;;;;17.44;59.12;101044.00;4420458;32;19971;-68
2022/05/15 03:42:29;;;;;;;;;;;;;;;17.24;60.16;101032.31;4424005;32;20046;-68
2022/05/15 03:44:55;;;;;;;;;;;;;;;17.03;62.66;101019.06;4420135;32;20305;-67
2022/05/15 03:47:21;;;;;;;;;;;;;;;16.79;62.14;101000.31;4422580;32;20031;-67
2022/05/15 03:49:47;;;;;;;;;;;;;;;16.45;63.59;100983.59;4418272;32;19992;-67
2022/05/15 03:52:14;;;;;;;;;;;;;;;16.34;61.62;100994.59;4420188;32;20386;-67
2022/05/15 03:54:41;;;;;;;;;;;;;;;16.26;64.78;100996.19;4421321;32;19989;-68
2022/05/15 03:57:07;;;;;;;;;;;;;;;15.90;66.79;100971.34;4422514;32;20005;-68
2022/05/15 03:59:34;;;;;;;;;;;;;;;15.98;68.07;100946.28;4422442;32;20296;-68
2022/05/15 04:02:00;;;;;;;;;;;;;;;15.97;70.01;100922.78;4422227;32;20019;-68
2022/05/15 04:04:26;;;;;;;;;;;;;;;15.68;70.22;100885.53;4421270;32;19989;-68
2022/05/15 04:06:52;;;;;;;;;;;;;;;15.56;71.39;100875.13;4418301;32;20365;-68
2022/05/15 04:09:18;;;;;;;;;;;;;;;15.93;70.89;100883.19;4423592;32;19945;-68
2022/05/15 04:11:43;;;;;;;;;;;;;;;15.98;70.30;100887.44;4420143;32;19965;-68
2022/05/15 04:14:09;;;;;;;;;;;;;;;15.89;69.77;100891.06;4421551;32;19999;-68
2022/05/15 04:16:35;;;;;;;;;;;;;;;15.72;69.96;100891.84;4419988;32;19968;-68
2022/05/15 04:19:04;;;;;;;;;;;;;;;15.79;70.03;100897.22;4423065;32;20025;-68
2022/05/15 04:21:36;;;;;;;;;;;;;;;15.95;70.41;100903.38;4418337;32;19969;-68
2022/05/15 04:24:05;;;;;;;;;;;;;;;15.91;69.07;100927.50;4422261;32;20009;-68
2022/05/15 04:26:32;;;;;;;;;;;;;;;15.86;68.46;100928.13;4421360;32;19965;-69
2022/05/15 04:28:58;;;;;;;;;;;;;;;15.84;70.06;100917.22;4422910;32;19953;-69
2022/05/15 04:31:24;;;;;;;;;;;;;;;16.00;69.12;100933.19;4418252;32;20014;-69
2022/05/15 04:33:49;;;;;;;;;;;;;;;15.93;69.31;100927.84;4420207;32;20009;-69
2022/05/15 04:36:15;;;;;;;;;;;;;;;16.22;69.51;100910.31;4417363;32;20402;-69
2022/05/15 04:38:41;;;;;;;;;;;;;;;16.46;69.60;100909.25;4420282;32;19981;-69
2022/05/15 04:41:08;;;;;;;;;;;;;;;16.35;68.02;100920.28;4419718;32;19993;-69
2022/05/15 04:43:34;;;;;;;;;;;;;;;16.37;67.68;100912.06;4419514;32;20048;-68
2022/05/15 04:46:03;;;;;;;;;;;;;;;16.28;68.52;100897.87;4421305;32;20377;-68
2022/05/15 04:48:29;;;;;;;;;;;;;;;16.41;67.19;100909.09;4422261;32;19957;-69
2022/05/15 04:50:54;;;;;;;;;;;;;;;16.52;66.73;100907.34;4420381;32;20008;-69
2022/05/15 04:53:20;;;;;;;;;;;;;;;16.68;66.02;100917.59;4418655;32;20052;-69
2022/05/15 04:55:46;;;;;;;;;;;;;;;16.77;67.35;100912.69;4422727;32;19957;-69
2022/05/15 04:58:11;;;;;;;;;;;;;;;16.88;68.09;100910.09;4421329;32;19997;-69
2022/05/15 05:00:38;;;;;;;;;;;;;;;16.96;68.37;100913.41;4421548;32;19993;-69
2022/05/15 05:03:04;;;;;;;;;;;;;;;17.03;68.13;100921.63;4419739;32;20002;-69
2022/05/15 05:05:30;;;;;;;;;;;;;;;17.18;68.32;100937.50;4421825;32;20323;-69
2022/05/15 05:07:55;;;;;;;;;;;;;;;17.16;67.67;100951.44;4420181;32;20005;-69
2022/05/15 05:10:21;;;;;;;;;;;;;;;17.19;67.78;100949.69;4419199;32;20303;-68
2022/05/15 05:12:46;;;;;;;;;;;;;;;17.16;68.56;100954.28;4420502;32;20005;-68
2022/05/15 05:15:13;;;;;;;;;;;;;;;17.24;67.71;100955.50;4420474;32;19989;-68
2022/05/15 05:17:42;;;;;;;;;;;;;;;17.21;65.01;100961.38;4420399;32;19997;-68
2022/05/15 05:20:08;;;;;;;;;;;;;;;17.26;65.29;100961.50;4419967;32;20007;-68
2022/05/15 05:22:34;;;;;;;;;;;;;;;17.34;65.07;100959.88;4417728;32;19949;-68
2022/05/15 05:24:59;;;;;;;;;;;;;;;17.33;65.69;100969.69;4421113;32;19992;-68
2022/05/15 05:27:25;;;;;;;;;;;;;;;17.30;65.15;100981.25;4421190;32;20017;-68
2022/05/15 05:29:51;;;;;;;;;;;;;;;17.29;64.10;100974.78;4422137;32;20005;-68
2022/05/15 05:32:17;;;;;;;;;;;;;;;17.34;65.85;100965.56;4420055;32;19976;-68
2022/05/15 05:34:43;;;;;;;;;;;;;;;17.34;65.26;100974.09;4421565;32;19971;-68
2022/05/15 05:37:08;;;;;;;;;;;;;;;17.53;65.52;100961.44;4419622;32;19996;-68
2022/05/15 05:39:34;;;;;;;;;;;;;;;17.58;64.69;100965.69;4420145;32;19961;-68
2022/05/15 05:41:59;;;;;;;;;;;;;;;17.51;64.84;100966.81;4419273;32;20493;-68
2022/05/15 05:44:25;;;;;;;;;;;;;;;17.68;64.79;100967.22;4421565;32;19946;-68
2022/05/15 05:46:51;;;;;;;;;;;;;;;17.80;63.57;100955.59;4418654;32;20015;-68
2022/05/15 05:49:17;;;;;;;;;;;;;;;17.83;63.59;100957.47;4421142;32;19984;-68
2022/05/15 05:51:42;;;;;;;;;;;;;;;17.91;63.34;100946.50;4423210;32;19964;-68
2022/05/15 05:54:08;;;;;;;;;;;;;;;18.09;63.20;100945.59;4424215;32;20357;-68
2022/05/15 05:56:33;;;;;;;;;;;;;;;18.13;63.78;100935.59;4423516;32;20394;-68
2022/05/15 05:58:59;;;;;;;;;;;;;;;18.08;62.80;100929.78;4423189;32;20095;-68
2022/05/15 06:01:25;;;;;;;;;;;;;;;18.26;62.96;100933.31;4425122;32;19992;-68
2022/05/15 06:06:36;;;;;;;;;;;;;;;18.32;61.76;100922.00;4423938;32;19969;-68
2022/05/15 06:09:01;;;;;;;;;;;;;;;18.38;60.10;100925.78;4423337;32;19960;-68
2022/05/15 06:11:26;;;;;;;;;;;;;;;18.38;61.92;100937.19;4421053;32;19984;-68
2022/05/15 06:13:52;;;;;;;;;;;;;;;18.45;61.78;100943.31;4424657;32;19950;-68
2022/05/15 06:16:18;;;;;;;;;;;;;;;18.57;61.95;100941.44;4423423;32;20103;-68
2022/05/15 06:18:44;;;;;;;;;;;;;;;18.57;60.78;100950.00;4423292;32;19989;-69
2022/05/15 06:21:10;;;;;;;;;;;;;;;18.52;62.02;100951.47;4422072;32;20242;-69
2022/05/15 06:23:35;;;;;;;;;;;;;;;18.56;61.77;100949.19;4421312;32;19957;-69
2022/05/15 06:26:01;;;;;;;;;;;;;;;18.67;62.16;100954.34;4424428;32;20019;-69
2022/05/15 06:28:29;;;;;;;;;;;;;;;18.74;60.91;100946.19;4421917;32;19992;-69
2022/05/15 06:30:55;;;;;;;;;;;;;;;18.69;60.48;100951.78;4419843;32;20008;-69
2022/05/15 06:33:20;;;;;;;;;;;;;;;18.68;60.99;100947.38;4423808;32;21008;-69
2022/05/15 06:35:46;;;;;;;;;;;;;;;18.57;61.92;100950.00;4422305;32;19949;-69
2022/05/15 06:38:12;;;;;;;;;;;;;;;18.69;61.52;100957.50;4413538;32;19972;-69
2022/05/15 06:40:38;;;;;;;;;;;;;;;18.80;61.33;100958.50;4421066;32;20450;-69
2022/05/15 06:43:03;;;;;;;;;;;;;;;18.77;61.59;100961.53;4422650;32;20016;-69
2022/05/15 06:45:29;;;;;;;;;;;;;;;18.83;61.56;100951.81;4417000;32;20283;-69
2022/05/15 06:47:54;;;;;;;;;;;;;;;18.73;59.46;100964.59;4424615;32;20031;-69
2022/05/15 06:50:20;;;;;;;;;;;;;;;18.65;60.21;100962.63;4423078;32;20120;-69
2022/05/15 06:52:46;;;;;;;;;;;;;;;18.72;60.84;100956.53;4420330;32;19957;-69
2022/05/15 06:55:17;;;;;;;;;;;;;;;18.82;60.98;100961.66;4420457;32;19946;-69
2022/05/15 06:57:44;;;;;;;;;;;;;;;18.77;60.27;100956.63;4424330;32;19968;-69
2022/05/15 07:00:13;;;;;;;;;;;;;;;19.12;60.21;100956.75;4423891;32;19971;-69
2022/05/15 07:02:40;;;;;;;;;;;;;;;19.17;58.63;100962.53;4421649;32;20050;-69
2022/05/15 07:05:06;;;;;;;;;;;;;;;19.24;57.77;100956.41;4423461;32;20366;-69
2022/05/15 07:07:32;;;;;;;;;;;;;;;19.36;56.04;100952.50;4419239;32;20310;-69
2022/05/15 07:09:57;;;;;;;;;;;;;;;19.55;55.70;100953.06;4420550;32;20005;-69
2022/05/15 07:12:23;;;;;;;;;;;;;;;19.47;55.66;100952.69;4421181;32;19989;-69
2022/05/15 07:14:49;;;;;;;;;;;;;;;19.56;56.58;100954.63;4422098;32;20065;-69
2022/05/15 07:17:14;;;;;;;;;;;;;;;19.57;56.52;100956.19;4420775;32;20358;-69
2022/05/15 07:19:40;;;;;;;;;;;;;;;19.71;55.77;100964.75;4422980;32;20064;-69
2022/05/15 07:22:05;;;;;;;;;;;;;;;19.74;54.10;100963.75;4422316;32;20026;-68
2022/05/15 07:24:31;;;;;;;;;;;;;;;19.84;52.75;100952.97;4424622;32;19950;-69
2022/05/15 07:26:58;;;;;;;;;;;;;;;19.92;53.59;100954.16;4422786;32;20298;-69
2022/05/15 07:29:24;;;;;;;;;;;;;;;20.14;54.05;100948.78;4422275;32;20068;-69
2022/05/15 07:31:51;;;;;;;;;;;;;;;20.27;54.19;100951.25;4421132;32;20335;-69
2022/05/15 07:34:17;;;;;;;;;;;;;;;20.21;50.50;100951.19;4422774;32;19961;-69
2022/05/15 07:36:43;;;;;;;;;;;;;;;20.25;52.11;100963.19;4421817;32;20217;-69
2022/05/15 07:39:09;;;;;;;;;;;;;;;20.41;52.73;100956.91;4423205;32;19957;-69
2022/05/15 07:41:35;;;;;;;;;;;;;;;20.58;51.14;100959.94;4420005;32;19988;-69
2022/05/15 07:44:00;;;;;;;;;;;;;;;20.67;48.95;100959.78;4421832;32;20039;-69
2022/05/15 07:46:26;;;;;;;;;;;;;;;20.76;49.41;100971.06;4422496;32;19989;-69
2022/05/15 07:48:54;;;;;;;;;;;;;;;20.84;49.31;100970.16;4422443;32;19989;-69
2022/05/15 07:51:20;;;;;;;;;;;;;;;20.64;48.92;100969.37;4421581;32;19953;-69
2022/05/15 07:53:45;;;;;;;;;;;;;;;20.38;48.76;100965.69;4410975;32;20299;-69
2022/05/15 07:56:13;;;;;;;;;;;;;;;20.58;49.64;100965.66;4423075;32;19984;-69
2022/05/15 07:58:39;;;;;;;;;;;;;;;20.68;49.96;100969.97;4421868;32;19957;-69
2022/05/15 08:01:05;;;;;;;;;;;;;;;20.40;49.21;100968.84;4418922;32;19990;-69
2022/05/15 08:03:33;;;;;;;;;;;;;;;20.74;49.54;100968.72;4418698;32;19992;-69
2022/05/15 08:08:45;;;;;;;;;;;;;;;20.88;48.57;100959.25;4419598;32;19986;-69
2022/05/15 08:11:11;;;;;;;;;;;;;;;21.11;48.36;100971.75;4420049;32;20024;-69
2022/05/15 08:13:37;;;;;;;;;;;;;;;21.04;47.33;100972.97;4422568;32;20025;-69
2022/05/15 08:16:02;;;;;;;;;;;;;;;21.18;47.88;100972.09;4423382;32;20433;-69
2022/05/15 08:24:00;;;;;;;;;;;;;;;21.16;48.62;100962.41;4421402;32;20375;-69
2022/05/15 08:26:26;;;;;;;;;;;;;;;21.00;48.96;100955.25;4421150;32;19997;-69
2022/05/15 08:28:51;;;;;;;;;;;;;;;20.85;47.51;100959.47;4422587;32;20393;-69
2022/05/15 08:31:18;;;;;;;;;;;;;;;20.87;47.72;100954.84;4422522;32;19945;-69
2022/05/15 08:33:44;;;;;;;;;;;;;;;20.76;47.29;100971.06;4421325;32;19997;-69
2022/05/15 08:36:10;;;;;;;;;;;;;;;20.85;47.77;100960.25;4418935;32;19996;-69
2022/05/15 08:38:36;;;;;;;;;;;;;;;21.03;46.48;100965.69;4421815;32;20030;-68
2022/05/15 08:41:06;;;;;;;;;;;;;;;21.04;47.43;100961.53;4417669;32;19997;-68
2022/05/15 08:43:41;;;;;;;;;;;;;;;21.03;46.93;100965.69;4417032;32;20045;-68
2022/05/15 08:46:17;;;;;;;;;;;;;;;21.12;47.08;100962.66;4421590;32;19957;-69
2022/05/15 08:48:42;;;;;;;;;;;;;;;21.22;47.09;100946.88;4420835;32;20401;-69
2022/05/15 08:51:10;;;;;;;;;;;;;;;21.57;46.69;100950.25;4416550;32;20001;-69
2022/05/15 08:53:39;;;;;;;;;;;;;;;21.74;45.30;100956.13;4421849;32;19961;-69
2022/05/15 08:56:07;;;;;;;;;;;;;;;22.06;43.87;100956.88;4407607;32;19965;-69
2022/05/15 08:58:39;;;;;;;;;;;;;;;22.51;44.24;100944.31;4421613;32;19968;-69
2022/05/15 09:01:06;;;;;;;;;;;;;;;22.92;43.55;100948.34;4419208;32;19963;-69
2022/05/15 09:03:35;;;;;;;;;;;;;;;23.41;41.48;100941.87;4418861;32;20012;-69
2022/05/15 09:06:20;;;;;;;;;;;;;;;23.94;40.64;100944.41;4422299;32;20082;-69
2022/05/15 09:09:06;;;;;;;;;;;;;;;23.78;40.01;100939.50;4420145;32;20013;-69
2022/05/15 09:16:56;;;;;;;;;;;;;;;25.56;39.28;100931.50;3951905;32;15723464;-68
2022/05/15 09:19:22;;;;;;;;;;;;;;;25.56;39.28;100931.50;4433323;32;20023;-68
2022/05/15 09:21:52;;;;;;;;;;;;;;;25.26;39.83;100923.62;4433832;32;19965;-68
2022/05/15 09:27:11;;;;;;;;;;;;;;;25.91;35.25;100923.53;3952420;32;15722562;-69
2022/05/15 09:29:37;;;;;;;;;;;;;;;25.91;35.25;100923.53;4426548;32;19962;-69
2022/05/15 09:32:05;;;;;;;;;;;;;;;25.67;34.78;100923.50;4431234;32;20005;-69
2022/05/15 09:34:33;;;;;;;;;;;;;;;25.96;33.34;100922.69;4425960;32;20306;-69
2022/05/15 09:39:47;;;;;;;;;;;;;;;26.03;34.61;100929.97;4428388;32;20000;-68
2022/05/15 09:44:50;;;;;;;;;;;;;;;26.18;35.67;100927.44;3950926;32;15724557;-68
2022/05/15 09:47:21;;;;;;;;;;;;;;;26.45;33.71;100932.84;4430211;32;19996;-68
2022/05/15 09:49:47;;;;;;;;;;;;;;;26.68;31.33;100922.59;4425881;32;19954;-69
2022/05/15 09:52:16;;;;;;;;;;;;;;;27.01;32.10;100919.22;4428798;32;20396;-68
2022/05/15 09:54:45;;;;;;;;;;;;;;;27.25;31.69;100914.66;4428130;32;20020;-68
2022/05/15 10:02:49;;;;;;;;;;;;;;;27.20;31.60;100896.84;3950222;32;15722618;-68
2022/05/15 10:07:56;;;;;;;;;;;;;;;26.66;32.24;100904.28;3951812;32;15723588;-69
2022/05/15 10:10:25;;;;;;;;;;;;;;;26.44;33.29;100904.53;4429956;32;20005;-69
2022/05/15 10:12:53;;;;;;;;;;;;;;;26.43;32.17;100903.75;4429760;32;19960;-69
2022/05/15 10:15:19;;;;;;;;;;;;;;;26.08;32.70;100894.53;4428610;32;19979;-69
2022/05/15 10:17:50;;;;;;;;;;;;;;;26.28;33.27;100908.41;4425423;32;19965;-69
2022/05/15 10:20:19;;;;;;;;;;;;;;;26.01;33.54;100906.69;4427825;32;20023;-69
2022/05/15 10:22:50;;;;;;;;;;;;;;;26.02;34.66;100899.56;4425373;32;20359;-69
2022/05/15 10:25:17;;;;;;;;;;;;;;;25.95;34.15;100894.37;4428223;32;19949;-69
2022/05/15 10:27:46;;;;;;;;;;;;;;;25.67;33.56;100897.56;4430614;32;19957;-69
2022/05/15 10:30:16;;;;;;;;;;;;;;;25.46;33.89;100896.47;4428172;32;20290;-69
2022/05/15 10:32:44;;;;;;;;;;;;;;;25.44;34.43;100889.69;4429452;32;20385;-69
2022/05/15 10:35:11;;;;;;;;;;;;;;;25.68;35.20;100886.81;4428282;32;19942;-69
2022/05/15 10:37:57;;;;;;;;;;;;;;;25.54;35.20;100883.03;4432332;32;20553;-68
2022/05/15 10:43:18;;;;;;;;;;;;;;;26.21;32.33;100900.38;3951368;32;15724466;-69
2022/05/15 10:48:46;;;;;;;;;;;;;;;26.45;32.46;100880.13;3969881;32;15726482;-68
2022/05/15 10:51:21;;;;;;;;;;;;;;;26.92;32.13;100879.19;4445312;32;20008;-67
2022/05/15 10:57:30;;;;;;;;;;;;;;;29.32;28.54;100884.00;3958584;31;15720463;-69
2022/05/15 11:05:03;;;;;;;;;;;;;;;30.24;27.60;100884.09;3937632;32;15722427;-68
2022/05/15 11:10:09;;;;;;;;;;;;;;;31.01;27.12;100883.84;3962730;31;15717031;-68
2022/05/15 11:15:31;;;;;;;;;;;;;;;31.10;26.87;100883.28;3952440;32;15725557;-69
2022/05/15 11:20:41;;;;;;;;;;;;;;;32.36;26.29;100875.81;3949849;32;15726664;-69
2022/05/15 11:23:12;;;;;;;;;;;;;;;32.36;26.29;100875.81;4424976;32;20003;-69
2022/05/15 11:25:41;;;;;;;;;;;;;;;32.02;26.37;100872.59;4428493;32;20087;-69
2022/05/15 11:28:13;;;;;;;;;;;;;;;32.47;25.86;100871.69;4429456;32;20045;-68
2022/05/15 11:30:41;;;;;;;;;;;;;;;32.84;25.62;100859.06;4432818;32;19953;-68
2022/05/15 11:33:09;;;;;;;;;;;;;;;32.19;26.48;100854.50;4427179;32;19965;-67
2022/05/15 11:35:39;;;;;;;;;;;;;;;32.14;26.47;100859.16;4427616;32;19976;-69
2022/05/15 11:40:44;;;;;;;;;;;;;;;31.70;27.30;100845.47;3950240;32;15725428;-69
2022/05/15 11:43:29;;;;;;;;;;;;;;;32.08;26.91;100843.25;4430876;32;19998;-68
2022/05/15 11:46:00;;;;;;;;;;;;;;;31.91;27.22;100843.87;4433423;32;20363;-69
2022/05/15 11:54:01;;;;;;;;;;;;;;;35.03;23.73;100837.91;3951625;32;15723739;-68
2022/05/15 11:56:34;;;;;;;;;;;;;;;35.03;23.73;100837.91;4427246;32;19945;-68
2022/05/15 11:59:02;;;;;;;;;;;;;;;34.78;23.77;100834.38;4426686;32;20019;-69
2022/05/15 12:04:09;;;;;;;;;;;;;;;35.57;22.92;100829.81;3951715;32;15722592;-69
2022/05/15 12:06:55;;;;;;;;;;;;;;;35.57;22.92;100829.81;4427081;32;19978;-69
2022/05/15 12:12:16;;;;;;;;;;;;;;;34.55;24.15;100821.47;3950301;32;15724608;-68
2022/05/15 12:15:01;;;;;;;;;;;;;;;34.55;24.15;100821.47;4428681;32;19971;-68
2022/05/15 12:17:30;;;;;;;;;;;;;;;34.18;24.46;100812.53;4428633;32;20023;-68
2022/05/15 12:20:17;;;;;;;;;;;;;;;33.92;24.85;100812.47;4428663;32;20129;-69
2022/05/15 12:22:46;;;;;;;;;;;;;;;34.04;24.47;100798.91;4427270;32;20029;-69
2022/05/15 12:25:14;;;;;;;;;;;;;;;34.17;24.48;100804.38;4430119;32;19961;-70
2022/05/15 12:27:50;;;;;;;;;;;;;;;34.21;24.66;100807.66;4428366;32;19996;-69
2022/05/15 12:30:22;;;;;;;;;;;;;;;34.09;24.57;100794.97;4428057;32;20000;-69
2022/05/15 12:32:50;;;;;;;;;;;;;;;33.67;25.08;100782.56;4429896;32;20139;-69
2022/05/15 12:37:57;;;;;;;;;;;;;;;33.59;25.29;100781.88;3951803;32;15725351;-69
2022/05/15 12:40:25;;;;;;;;;;;;;;;33.59;25.29;100781.88;4433121;32;19968;-68
2022/05/15 12:42:52;;;;;;;;;;;;;;;32.92;25.82;100783.25;4431389;32;19992;-69
2022/05/15 12:45:20;;;;;;;;;;;;;;;33.04;25.87;100778.50;4432685;32;20328;-69
2022/05/15 12:48:06;;;;;;;;;;;;;;;33.53;25.53;100781.38;4434618;32;19992;-69
2022/05/15 12:50:33;;;;;;;;;;;;;;;33.84;25.15;100783.34;4434921;32;20343;-69
2022/05/15 12:53:03;;;;;;;;;;;;;;;33.65;25.07;100776.56;4432814;32;20349;-69
2022/05/15 12:55:31;;;;;;;;;;;;;;;32.99;26.04;100771.53;4433038;32;19968;-69
2022/05/15 12:57:58;;;;;;;;;;;;;;;31.84;27.04;100774.09;4431445;32;19965;-68
2022/05/15 13:00:30;;;;;;;;;;;;;;;31.51;27.65;100772.37;4432201;32;19949;-68
2022/05/15 13:02:57;;;;;;;;;;;;;;;31.16;28.18;100765.41;4429190;32;20380;-69
2022/05/15 13:05:26;;;;;;;;;;;;;;;30.94;28.49;100756.69;4432025;32;19985;-69
2022/05/15 13:07:55;;;;;;;;;;;;;;;32.14;27.39;100747.72;4432819;32;20005;-69
2022/05/15 13:10:21;;;;;;;;;;;;;;;32.70;26.29;100738.28;4435529;32;19967;-69
2022/05/15 13:12:49;;;;;;;;;;;;;;;33.48;25.29;100748.16;4432225;32;20004;-69
2022/05/15 13:15:18;;;;;;;;;;;;;;;33.62;25.17;100745.66;4431545;32;20008;-69
2022/05/15 13:17:44;;;;;;;;;;;;;;;33.94;24.93;100733.81;4432373;32;19996;-69
2022/05/15 13:20:14;;;;;;;;;;;;;;;34.29;24.53;100736.06;4433835;32;19942;-69
2022/05/15 13:22:39;;;;;;;;;;;;;;;34.64;23.78;100735.97;4432895;32;20023;-69
2022/05/15 13:25:11;;;;;;;;;;;;;;;34.62;23.41;100738.72;4432845;32;19993;-69
2022/05/15 13:27:39;;;;;;;;;;;;;;;34.05;24.06;100736.22;4433282;32;20016;-69
2022/05/15 13:30:05;;;;;;;;;;;;;;;32.86;25.00;100736.06;4433521;32;20028;-69
2022/05/15 13:32:31;;;;;;;;;;;;;;;31.58;26.81;100733.75;4433445;32;19992;-69
2022/05/15 13:34:56;;;;;;;;;;;;;;;31.23;26.78;100732.63;4430573;32;20304;-69
2022/05/15 13:43:23;;;;;;;;;;;;;;;31.50;27.22;100730.12;4432836;32;19953;-69
2022/05/15 13:45:45;;;;;;;;;;;;;;;30.86;28.09;100718.91;4432758;32;19988;-69
2022/05/15 13:48:11;;;;;;;;;;;;;;;29.80;29.79;100729.47;4433425;32;19964;-68
2022/05/15 13:50:39;;;;;;;;;;;;;;;28.64;31.49;100712.38;4432908;32;20339;-68
2022/05/15 13:55:57;;;;;;;;;;;;;;;28.03;33.06;100710.16;3950765;32;15727255;-69
2022/05/15 13:58:39;;;;;;;;;;;;;;;28.03;33.06;100710.16;4429843;32;19966;-69
2022/05/15 14:01:07;;;;;;;;;;;;;;;27.21;34.20;100710.56;4425881;32;20005;-69